Dauntless Aviation
Airports Europe Netherlands
EHAM
AMS

Amsterdam Airport Schiphol

Amsterdam, Noord, NETHERLANDS

Airport Info
Suggest Updated Information for this Airport

Location

Latitude / Longitude: 52°18'30"N / 4°45'50"E
  52°18.516'N / 4°45.834'E
  52.3086 / 4.7639

Nearby radio navigation aids

SPL SCHIPHOL VOR/DME. 161.8° 1.5nm from SPL to field.
SPY SPIJKERBOOR VOR/DME. 195.4° 14.3nm from SPY to field.

Runway Information

Runway 04 /22

Dimensions: 6608 x 148 ft.
Surface: ASP
 
Runway 04
Runway 22
Latitude: 52.300372 52.314025
Longitude: 4.783483 4.803025
Elevation: -13 ft. -13 ft.
Runway true heading: 39.2 219.2
 

Runway 06 /24

Dimensions: 11483 x 148 ft.
Surface: ASP
 
Runway 06
Runway 24
Latitude: 52.289122 52.304581
Longitude: 4.737269 4.777517
Elevation: -12 ft. -12 ft.
Runway true heading: 56.2 236.2
 

Runway 09 /27

Dimensions: 11329 x 148 ft.
Surface: ASP
 
Runway 09
Runway 27
Latitude: 52.316689 52.318375
Longitude: 4.747661 4.796892
Elevation: -12 ft. -12 ft.
Runway true heading: 85.2 265.2
 

Runway 18C/36C

Dimensions: 10827 x 148 ft.
Surface: ASP
 
Runway 18C
Runway 36C
Latitude: 52.331397 52.305831
Longitude: 4.740031 4.737683
Elevation: -12 ft. -12 ft.
Runway true heading: 181.2 1.2
 

Runway 18L/36R

Dimensions: 11155 x 148 ft.
Surface: ASP
 
Runway 18L
Runway 36R
Latitude: 52.31615 52.290825
Longitude: 4.779692 4.777347
Elevation: -12 ft. -12 ft.
Runway true heading: 181.2 1.2
 

Runway 18R/36L

Dimensions: 12468 x 197 ft.
Surface: ASP
 
Runway 18R
Runway 36L
Latitude: 52.360258 52.328581
Longitude: 4.711725 4.708836
Elevation: -13 ft. -13 ft.
Runway true heading: 181.2 1.2
 

Instrument Procedures

  Aircraft Parking/Docking Chart SCHIPHOL Centre
  Aircraft Parking/Docking Chart SCHIPHOL East K-Apron
  Aircraft Parking/Docking Chart SCHIPHOL East M-Apron
  Aircraft Parking/Docking Chart SCHIPHOL Centre U-Apron
  Aerodrome Ground Movement Chart
  Aerodrome Chart

STARs (Standard Terminal Arrivals)

  STAR-Instrument

IAPs (Instrument Approach Procedures)

  Aerodrome Obstacle Chart Type A Rwy 09-27
  Night - RNAV Transition Chart via SOKSI 1A to Rwy 06
  Night - RNAV Transition Chart via NARIX 1C or NIRSI 1B to Rwy 18R
  RNAV Transition Chart via EH669 to Rwy 36R
  Visual Approach Chart VFR Procedures
  Aerodrome Information (Textual)
  ILS CAT II and III or LOC Rwy 06
  Night - IAC SOKSI 1A Approach ILS CAT II and III Rwy 06
  NDB Rwy 06
  VOR Rwy 09
  ILS CAT II and III or LOC Rwy 18R
  Night - IAC NARIX 1C/ NIRSI 1B Approach ILS CAT II and III Rwy 18R
  VOR Rwy 18R
  ILS or LOC Rwy 22
  Copter ILS or LOC Rwy 22
  RNAV (GNSS) Rwy 22
  ILS CAT II and III or LOC Rwy 27
  VOR Rwy 27
  ILS CAT II and III or LOC Rwy 36C
  VOR Rwy 36C
  ILS CAT II and III or LOC Rwy 36R
  NDB Rwy 36R
  ATC Surveillance Minimum Altitude Chart
  VFR Traffic Circuits
  Precision Approach Terrain Chart Rwy 18C
  Precision Approach Terrain Chart Rwy 18R
  Precision Approach Terrain Chart Rwy 27
  Precision Approach Terrain Chart Rwy 36C
  Precision Approach Terrain Chart Rwy 36R
  Aerodrome Obstacle Chart Type A Rwy 04-22
  Aerodrome Obstacle Chart Type A Rwy 06-24
  Aerodrome Obstacle Chart Type A Rwy 18C-36C
  Aerodrome Obstacle Chart Type A Rwy 18L
  Aerodrome Obstacle Chart Type A Rwy 36L
  ILS CAT II and III or LOC Rwy 18C
  NDB Rwy 18C
  Circling VOR Rwy 24
  Precision Approach Terrain Chart Rwy 06

Departure Procedures

  SID-Instrument Rwy 24
  SID-Instrument - OVERVIEW
  SID-Instrument Rwy 04
  SID-Instrument Rwy 06
  SID-Instrument Rwy 06 (SUPPLEMENTARY)
  SID-Instrument Rwy 09
  SID-Instrument Rwy 18C
  SID-Instrument Rwy 18L
  SID-Instrument Rwy 22
  SID-Instrument Rwy 24
  SID-Instrument Rwy 27
  SID-Instrument Rwy 36C
  SID-Instrument Rwy 36L
  SID-Instrument Rwy 36L (SUPPLEMENTARY)
Satellite photo at:
Airport distance calculator
From:
Weather Reports

METAR

EHAM

EHAM 300825Z 28007KT 250V310 9999 -RADZ FEW014 BKN016 05/02 Q1032 TEMPO 6000
EHRD
24.4nm S
EHRD 300825Z AUTO 28003KT 240V320 9999 FEW035 SCT045 06/M00 Q1032 BECMG 31010KT TEMPO 6000 -RA BKN015
EHLE
28.9nm NE
EHLE 300825Z AUTO 26007KT 230V300 9999 OVC016 05/02 Q1031 BECMG 31010KT TEMPO 6000 -RA BKN015
EHKD
36.5nm N
EHKD 300830Z AUTO 35008KT 300V050 9999 FEW017 SCT025 07/04 Q1031 BLU 33005KT 9999 SCT020 TEMPO SCT012 SCT020CB BKN030

TAF

EHAM
TAF EHAM 300454Z 3006/3112 25004KT CAVOK BECMG 3008/3011 33010KT SCT030 TEMPO 3008/3010 7000 -RA SCT015 BKN022 PROB30 TEMPO 3008/3009 4000 RASN SCT012 BKN015 PROB40 TEMPO 3010/3018 7000 -SHRA -SHRAGS SCT025CB BECMG 3018/3021 04007KT CAVOK
EHRD
24.4nm S
TAF EHRD 300454Z 3006/3112 24004KT CAVOK BECMG 3009/3012 33010KT SCT030 TEMPO 3009/3011 7000 -RA SCT015 BKN020 PROB40 TEMPO 3011/3018 7000 -SHRA -SHRAGS SCT025CB BECMG 3018/3021 04007KT CAVOK
EHKD
36.5nm N
TAF EHKD 300435Z 3005/3017 32005KT 9999 BKN030 TEMPO 3005/3009 FEW018CB BKN020 PROB30 TEMPO 3005/3008 4500 -SHRASN -RASN SCT012 FEW015CB BKN020 BECMG 3008/3010 34010KT PROB40 TEMPO 3009/3016 SCT020CB
Safelog

 

Dauntless Aviation

© 2007-2020 Dauntless Aviation, all rights reserved
Information provided via PilotNav comes from a variety of official and unofficial data sources. As errors are possible, do not use PilotNav for primary flight planning purposes. Verify any information that you receive via PilotNav with current and canonical charts and other official documents. The material in this database is subject to database copyrights held by Dauntless Aviation and may not be copied without the express permission of Dauntless Aviation - licenses for use of part of all of this data are available for purchase; enquire via the Dauntless Aviation helpdesk. A number of mechanisms and markers exist in the database to protect against and identify infringement / copyright. Automated queries against this website are stictly prohibited, and all activity is logged and analyzed.